Time;durP1;ratioP1;P1;durP2;ratioP2;P2;SDS_P1;SDS_P2;PMS_P1;PMS_P2;Temp;Humidity;BMP_temperature;BMP_pressure;BME280_temperature;BME280_humidity;BME280_pressure;Samples;Min_cycle;Max_cycle;Signal;HPM_P1;HPM_P2
2023/09/25 00:01:04;;;;;;;6.63;5.90;;;16.10;99.90;;;;;;5054825;28;20467;-90
2023/09/25 00:03:35;;;;;;;6.03;5.40;;;16.10;99.90;;;;;;5044341;28;20828;-85
2023/09/25 00:06:04;;;;;;;5.73;5.27;;;16.10;99.90;;;;;;5054137;28;20478;-90
2023/09/25 00:08:32;;;;;;;6.57;6.10;;;16.10;99.90;;;;;;5053580;28;20478;-86
2023/09/25 00:10:59;;;;;;;6.30;5.73;;;16.00;99.90;;;;;;5054180;28;20474;-84
2023/09/25 00:13:26;;;;;;;7.53;5.93;;;16.00;99.90;;;;;;5053780;28;20487;-85
2023/09/25 00:15:53;;;;;;;5.27;4.77;;;16.00;99.90;;;;;;5054296;28;20521;-90
2023/09/25 00:18:22;;;;;;;5.33;4.83;;;16.00;99.90;;;;;;5054216;28;20478;-84
2023/09/25 00:21:40;;;;;;;5.10;4.70;;;16.00;99.90;;;;;;5053482;28;20482;-89
2023/09/25 00:24:10;;;;;;;6.00;5.50;;;16.00;99.90;;;;;;5053622;28;20459;-89
2023/09/25 00:26:37;;;;;;;6.37;5.90;;;16.00;99.90;;;;;;5054303;28;20475;-88
2023/09/25 00:29:07;;;;;;;6.10;5.50;;;15.90;99.90;;;;;;5053237;28;20478;-83
2023/09/25 00:31:37;;;;;;;6.80;6.20;;;15.90;99.90;;;;;;5053879;28;20475;-82
2023/09/25 00:34:05;;;;;;;6.03;5.53;;;15.90;99.90;;;;;;5052848;28;20471;-90
2023/09/25 00:36:32;;;;;;;6.77;6.17;;;15.90;99.90;;;;;;5053252;28;20788;-89
2023/09/25 00:39:05;;;;;;;7.27;5.90;;;15.90;99.90;;;;;;5053664;28;20475;-83
2023/09/25 00:41:35;;;;;;;6.30;5.80;;;15.90;99.90;;;;;;5052753;28;20470;-83
2023/09/25 00:44:03;;;;;;;6.00;5.50;;;15.90;99.90;;;;;;5032999;28;20468;-90
2023/09/25 00:46:52;;;;;;;7.03;6.33;;;15.80;99.90;;;;;;5052454;28;20491;-84
2023/09/25 00:49:22;;;;;;;6.73;6.13;;;15.80;99.90;;;;;;5053058;28;20798;-83
2023/09/25 00:52:09;;;;;;;7.00;6.30;;;15.80;99.90;;;;;;5053337;28;20541;-90
2023/09/25 00:54:38;;;;;;;6.37;5.80;;;15.80;99.90;;;;;;5053490;28;20781;-85
2023/09/25 00:57:07;;;;;;;6.80;6.10;;;15.70;99.90;;;;;;5053503;28;20955;-83
2023/09/25 00:59:34;;;;;;;6.93;6.23;;;15.70;99.90;;;;;;5042663;28;20479;-89
2023/09/25 01:02:02;;;;;;;6.07;5.57;;;15.70;99.90;;;;;;5053431;28;20945;-83
2023/09/25 01:04:32;;;;;;;6.67;6.17;;;15.70;99.90;;;;;;5043528;28;20879;-83
2023/09/25 01:07:03;;;;;;;6.93;6.33;;;15.70;99.90;;;;;;5052919;28;20840;-90
2023/09/25 01:09:33;;;;;;;6.73;6.07;;;15.70;99.90;;;;;;5052293;28;20471;-83
2023/09/25 01:12:05;;;;;;;6.67;5.90;;;15.70;99.90;;;;;;5052653;28;20478;-83
2023/09/25 01:14:33;;;;;;;6.53;6.03;;;15.60;99.90;;;;;;5051864;28;20463;-83
2023/09/25 01:17:01;;;;;;;7.10;6.50;;;15.60;99.90;;;;;;5052594;28;20486;-89
2023/09/25 01:19:29;;;;;;;7.47;6.87;;;15.60;99.90;;;;;;5052811;28;20470;-88
2023/09/25 01:22:04;;;;;;;7.23;6.53;;;15.70;99.90;;;;;;5052659;28;20467;-90
2023/09/25 01:24:33;;;;;;;7.03;6.43;;;15.60;99.90;;;;;;5052407;28;20470;-83
2023/09/25 01:27:01;;;;;;;6.10;5.60;;;15.60;99.90;;;;;;5052118;28;20502;-83
2023/09/25 01:29:28;;;;;;;6.93;6.30;;;15.60;99.90;;;;;;5051909;28;20873;-89
2023/09/25 01:31:57;;;;;;;6.23;5.70;;;15.60;99.90;;;;;;5053489;28;20801;-89
2023/09/25 01:34:25;;;;;;;7.87;6.70;;;15.60;99.90;;;;;;5051735;28;20472;-84
2023/09/25 01:36:54;;;;;;;11.50;7.10;;;15.50;99.90;;;;;;5052966;28;20873;-83
2023/09/25 01:39:27;;;;;;;7.70;6.40;;;15.50;99.90;;;;;;5044448;28;20467;-83
2023/09/25 01:41:58;;;;;;;6.47;5.87;;;15.50;99.90;;;;;;5052210;28;20463;-83
2023/09/25 01:44:26;;;;;;;6.80;6.23;;;15.50;99.90;;;;;;5052455;28;20495;-89
2023/09/25 01:46:54;;;;;;;8.07;5.73;;;15.50;99.90;;;;;;5052170;28;20455;-83
2023/09/25 01:49:22;;;;;;;6.20;5.60;;;15.50;99.90;;;;;;5052739;28;20479;-89
2023/09/25 01:51:51;;;;;;;6.03;5.47;;;15.50;99.90;;;;;;5051412;28;20471;-89
2023/09/25 01:54:19;;;;;;;6.70;6.10;;;15.40;99.90;;;;;;5052030;28;20825;-89
2023/09/25 01:56:47;;;;;;;6.87;6.17;;;15.50;99.90;;;;;;5052173;28;20471;-83
2023/09/25 01:59:17;;;;;;;7.60;6.60;;;15.50;99.90;;;;;;5052463;28;20550;-83
2023/09/25 02:01:44;;;;;;;7.83;7.10;;;15.50;99.90;;;;;;5050572;28;20554;-83
2023/09/25 02:04:12;;;;;;;7.50;6.90;;;15.40;99.90;;;;;;5059312;28;20521;-83
2023/09/25 02:06:42;;;;;;;7.20;6.50;;;15.40;99.90;;;;;;5051966;28;20471;-83
2023/09/25 02:09:10;;;;;;;6.63;6.03;;;15.40;99.90;;;;;;5051535;28;20467;-89
2023/09/25 02:11:41;;;;;;;6.70;6.20;;;15.40;99.90;;;;;;5049191;28;20478;-89
2023/09/25 02:14:10;;;;;;;7.60;6.90;;;15.40;99.90;;;;;;5060792;28;20809;-89
2023/09/25 02:16:37;;;;;;;7.20;6.43;;;15.40;99.90;;;;;;5052622;28;20471;-83
2023/09/25 02:19:07;;;;;;;7.93;7.23;;;15.30;99.90;;;;;;5052142;28;20462;-89
2023/09/25 02:21:41;;;;;;;8.23;7.53;;;15.30;99.90;;;;;;5052992;28;20498;-88
2023/09/25 02:24:09;;;;;;;8.30;7.33;;;15.30;99.90;;;;;;5051475;28;20549;-89
2023/09/25 02:26:36;;;;;;;7.70;7.10;;;15.30;99.90;;;;;;5052568;28;20475;-83
2023/09/25 02:29:07;;;;;;;7.00;6.40;;;15.30;99.90;;;;;;5051986;28;20529;-89
2023/09/25 02:31:36;;;;;;;7.67;6.90;;;15.30;99.90;;;;;;5052636;28;20541;-83
2023/09/25 02:34:14;;;;;;;7.30;6.60;;;15.30;99.90;;;;;;5051575;28;20471;-89
2023/09/25 02:36:43;;;;;;;7.73;6.90;;;15.20;99.90;;;;;;5052969;28;20473;-89
2023/09/25 02:39:22;;;;;;;9.63;8.83;;;15.20;99.90;;;;;;5053226;28;20493;-89
2023/09/25 02:41:50;;;;;;;9.23;7.00;;;15.20;99.90;;;;;;5057843;28;20517;-83
2023/09/25 02:44:18;;;;;;;8.20;7.50;;;15.20;99.90;;;;;;5045137;28;20467;-83
2023/09/25 02:47:14;;;;;;;7.93;7.13;;;15.10;99.90;;;;;;5068093;28;20498;-89
2023/09/25 02:49:42;;;;;;;6.90;6.40;;;15.10;99.90;;;;;;5036771;28;20471;-87
2023/09/25 02:52:09;;;;;;;7.90;7.20;;;15.10;99.90;;;;;;5036215;28;20487;-83
2023/09/25 02:54:39;;;;;;;7.47;6.37;;;15.10;99.90;;;;;;5035850;28;20969;-83
2023/09/25 02:57:09;;;;;;;7.47;6.90;;;15.10;99.90;;;;;;5034918;28;20460;-83
2023/09/25 02:59:39;;;;;;;6.53;6.03;;;15.10;99.90;;;;;;5036312;28;20514;-89
2023/09/25 03:02:07;;;;;;;7.27;6.57;;;15.10;99.90;;;;;;5035184;28;20922;-83
2023/09/25 03:04:37;;;;;;;7.53;6.83;;;15.10;99.90;;;;;;5036109;28;20780;-89
2023/09/25 03:07:07;;;;;;;8.53;7.60;;;15.10;99.90;;;;;;5034664;28;20460;-89
2023/09/25 03:09:38;;;;;;;8.47;7.67;;;15.10;99.90;;;;;;5036047;28;20471;-89
2023/09/25 03:12:06;;;;;;;7.47;6.77;;;15.10;99.90;;;;;;5028533;28;20470;-90
2023/09/25 03:14:33;;;;;;;7.40;6.80;;;15.10;99.90;;;;;;5049068;28;20981;-89
2023/09/25 03:17:04;;;;;;;7.37;6.40;;;15.00;99.90;;;;;;5036418;28;20475;-83
2023/09/25 03:19:35;;;;;;;6.53;6.03;;;15.10;99.90;;;;;;5037380;28;20468;-89
2023/09/25 03:22:06;;;;;;;7.00;6.50;;;15.10;99.90;;;;;;5026962;28;20496;-82
2023/09/25 03:24:33;;;;;;;6.93;6.33;;;15.00;99.90;;;;;;5040117;28;20472;-89
2023/09/25 03:27:00;;;;;;;7.90;7.20;;;15.00;99.90;;;;;;5038331;28;20476;-82
2023/09/25 03:29:29;;;;;;;6.93;6.40;;;15.00;99.90;;;;;;5036118;28;20536;-89
2023/09/25 03:32:08;;;;;;;7.77;7.07;;;15.00;99.90;;;;;;5040793;28;20785;-88
2023/09/25 03:35:16;;;;;;;8.87;6.63;;;15.00;99.90;;;;;;5033092;28;20482;-88
2023/09/25 03:37:47;;;;;;;8.27;7.50;;;15.00;99.90;;;;;;5037249;28;20475;-83
2023/09/25 03:40:17;;;;;;;8.37;7.50;;;15.00;99.90;;;;;;5035131;28;20472;-83
2023/09/25 03:42:51;;;;;;;7.53;6.87;;;14.90;99.90;;;;;;5034539;28;20468;-83
2023/09/25 03:45:18;;;;;;;8.00;7.20;;;14.90;99.90;;;;;;5035424;28;20556;-83
2023/09/25 03:47:51;;;;;;;7.00;6.40;;;14.90;99.90;;;;;;5039042;28;20471;-89
2023/09/25 03:50:19;;;;;;;9.03;8.00;;;14.90;99.90;;;;;;5054937;28;20483;-83
2023/09/25 03:52:47;;;;;;;9.03;8.27;;;14.90;99.90;;;;;;5053325;28;20467;-82
2023/09/25 03:55:17;;;;;;;7.27;6.67;;;14.90;99.90;;;;;;5058342;28;20550;-83
2023/09/25 03:57:45;;;;;;;7.90;7.10;;;14.90;99.90;;;;;;5054820;28;20550;-89
2023/09/25 04:00:16;;;;;;;8.07;7.27;;;14.90;99.90;;;;;;5056836;28;20463;-83
2023/09/25 04:02:44;;;;;;;8.50;7.70;;;14.90;99.90;;;;;;5052440;28;20463;-89
2023/09/25 04:05:14;;;;;;;7.83;7.13;;;14.80;99.90;;;;;;5053418;28;20471;-83
2023/09/25 04:07:42;;;;;;;8.40;7.60;;;14.80;99.90;;;;;;5045612;28;20478;-88
2023/09/25 04:10:12;;;;;;;7.97;7.27;;;14.80;99.90;;;;;;5055762;28;20538;-89
2023/09/25 04:12:40;;;;;;;8.50;7.70;;;14.80;99.90;;;;;;5056145;28;20474;-82
2023/09/25 04:15:13;;;;;;;8.07;7.30;;;14.80;99.90;;;;;;5046237;28;20475;-88
2023/09/25 04:17:45;;;;;;;8.07;7.37;;;14.80;99.90;;;;;;5054530;28;20463;-83
2023/09/25 04:20:17;;;;;;;7.50;6.80;;;14.80;99.90;;;;;;5061680;28;20471;-84
2023/09/25 04:22:56;;;;;;;8.60;6.90;;;14.80;99.90;;;;;;5048950;28;21014;-89
2023/09/25 04:25:27;;;;;;;8.13;7.43;;;14.70;99.90;;;;;;5067257;28;20475;-83
2023/09/25 04:28:00;;;;;;;8.40;7.53;;;14.80;99.90;;;;;;5053345;28;20474;-84
2023/09/25 04:31:27;;;;;;;;;;;;;;;;;;;;;
2023/09/25 04:33:54;;;;;;;8.83;8.03;;;14.70;99.90;;;;;;5052049;28;21559;-89
2023/09/25 04:36:23;;;;;;;8.00;7.20;;;14.70;99.90;;;;;;5053346;28;20476;-88
2023/09/25 04:38:51;;;;;;;8.23;7.50;;;14.60;99.90;;;;;;5052453;28;20467;-82
2023/09/25 04:41:22;;;;;;;8.40;7.40;;;14.60;99.90;;;;;;5050232;28;20544;-84
2023/09/25 04:43:50;;;;;;;8.43;7.73;;;14.60;99.90;;;;;;5060991;28;20447;-88
2023/09/25 04:46:19;;;;;;;9.20;8.40;;;14.60;99.90;;;;;;5057332;28;20478;-88
2023/09/25 04:48:47;;;;;;;8.27;7.40;;;14.60;99.90;;;;;;5052903;28;20483;-83
2023/09/25 04:51:23;;;;;;;10.00;8.53;;;14.60;99.90;;;;;;5053342;28;20497;-88
2023/09/25 04:53:53;;;;;;;8.17;7.37;;;14.60;99.90;;;;;;5055578;28;20498;-90
2023/09/25 04:56:22;;;;;;;8.40;7.53;;;14.60;99.90;;;;;;5044902;28;20501;-83
2023/09/25 04:59:01;;;;;;;8.30;7.50;;;14.60;99.90;;;;;;5054138;28;20463;-88
2023/09/25 05:01:38;;;;;;;9.10;8.30;;;14.60;99.90;;;;;;5056324;28;20475;-84
2023/09/25 05:04:09;;;;;;;8.80;8.00;;;14.60;99.90;;;;;;5056608;28;20470;-89
2023/09/25 05:06:40;;;;;;;9.07;7.57;;;14.60;99.90;;;;;;5056185;28;20826;-88
2023/09/25 05:09:11;;;;;;;8.57;7.77;;;14.60;99.90;;;;;;5046166;28;20463;-83
2023/09/25 05:11:44;;;;;;;8.53;7.73;;;14.60;99.90;;;;;;5071198;28;20469;-87
2023/09/25 05:14:12;;;;;;;8.73;7.80;;;14.60;99.90;;;;;;5067956;28;21030;-83
2023/09/25 05:16:42;;;;;;;9.43;8.50;;;14.60;99.90;;;;;;5046692;28;20486;-82
2023/09/25 05:19:20;;;;;;;8.60;7.80;;;14.60;99.90;;;;;;5067958;28;20471;-88
2023/09/25 05:21:47;;;;;;;7.57;6.87;;;14.60;99.90;;;;;;5065234;28;20478;-88
2023/09/25 05:24:15;;;;;;;9.60;8.80;;;14.60;99.90;;;;;;5072453;28;20471;-88
2023/09/25 05:26:48;;;;;;;9.43;8.27;;;14.60;99.90;;;;;;5075101;28;20474;-89
2023/09/25 05:29:18;;;;;;;9.00;8.17;;;14.60;99.90;;;;;;5061030;28;20474;-88
2023/09/25 05:32:07;;;;;;;;;;;;;;;;;;;;;
2023/09/25 05:34:34;;;;;;;8.50;7.67;;;14.60;99.90;;;;;;5073543;28;20498;-89
2023/09/25 05:37:34;;;;;;;9.07;8.27;;;14.60;99.90;;;;;;5070667;28;20523;-89
2023/09/25 05:40:02;;;;;;;8.93;8.10;;;14.60;99.90;;;;;;5071870;28;20470;-87
2023/09/25 05:42:42;;;;;;;15.13;8.90;;;14.60;99.90;;;;;;5062568;28;20483;-88
2023/09/25 05:45:13;;;;;;;13.27;8.33;;;14.60;99.90;;;;;;5054274;28;21087;-83
2023/09/25 05:47:43;;;;;;;9.40;8.00;;;14.60;99.90;;;;;;5053136;28;20479;-82
2023/09/25 05:50:13;;;;;;;8.63;7.50;;;14.70;99.90;;;;;;5051361;28;20470;-87
2023/09/25 05:52:42;;;;;;;9.23;8.33;;;14.70;99.90;;;;;;5086269;28;20471;-87
2023/09/25 05:55:12;;;;;;;8.83;7.60;;;14.80;99.90;;;;;;5070576;28;20474;-88
2023/09/25 05:57:43;;;;;;;9.73;8.50;;;14.80;99.90;;;;;;5069789;28;20459;-88
2023/09/25 06:00:35;;;;;;;7.73;7.00;;;14.80;99.90;;;;;;5062228;28;20467;-89
2023/09/25 06:03:10;;;;;;;9.70;8.40;;;14.80;99.90;;;;;;5035908;28;20521;-85
2023/09/25 06:05:39;;;;;;;17.20;9.57;;;14.80;99.90;;;;;;5061222;28;20813;-88
2023/09/25 06:08:09;;;;;;;10.93;8.13;;;14.90;99.90;;;;;;5052139;28;20475;-87
2023/09/25 06:10:36;;;;;;;8.23;7.50;;;14.90;99.90;;;;;;5055483;28;20479;-88
2023/09/25 06:13:22;;;;;;;9.20;8.33;;;14.90;99.90;;;;;;5055806;28;20874;-88
2023/09/25 06:15:49;;;;;;;12.10;8.43;;;14.90;99.90;;;;;;5059075;28;20463;-83
2023/09/25 06:21:13;;;;;;;8.43;7.70;;;15.00;99.90;;;;;;5052234;28;20994;-82
2023/09/25 06:23:40;;;;;;;10.33;7.37;;;15.10;99.90;;;;;;5058091;28;20482;-88
2023/09/25 06:26:08;;;;;;;10.17;7.43;;;15.10;99.90;;;;;;5057283;28;20491;-82
2023/09/25 06:28:45;;;;;;;10.73;9.00;;;15.20;99.90;;;;;;5050471;28;20543;-82
2023/09/25 06:31:13;;;;;;;10.47;9.47;;;15.30;99.90;;;;;;5063718;28;20486;-84
2023/09/25 06:33:42;;;;;;;10.83;8.33;;;15.30;99.90;;;;;;5055960;28;20472;-83
2023/09/25 06:36:19;;;;;;;10.03;8.93;;;15.30;99.90;;;;;;5056104;28;20885;-84
2023/09/25 06:38:49;;;;;;;8.40;7.70;;;15.40;99.90;;;;;;5060745;28;20465;-83
2023/09/25 06:41:19;;;;;;;7.67;6.40;;;15.40;99.90;;;;;;5056336;28;20463;-82
2023/09/25 06:43:57;;;;;;;7.67;6.87;;;15.50;99.90;;;;;;5059056;28;20496;-82
2023/09/25 06:46:30;;;;;;;8.20;7.50;;;15.50;99.90;;;;;;5047262;28;20510;-86
2023/09/25 06:48:57;;;;;;;6.63;6.03;;;15.50;99.90;;;;;;5071620;28;20482;-88
2023/09/25 06:52:01;;;;;;;7.67;6.90;;;15.60;99.90;;;;;;5057377;28;20486;-88
2023/09/25 06:54:14;;;;;;;8.67;7.87;;;15.70;99.90;;;;;;5032670;28;20455;-88
2023/09/25 06:56:48;;;;;;;9.43;8.47;;;15.70;99.90;;;;;;5057444;28;20459;-88
2023/09/25 06:59:22;;;;;;;10.80;7.80;;;15.70;99.90;;;;;;5055170;28;20811;-88
2023/09/25 07:02:21;;;;;;;8.70;7.80;;;15.70;99.90;;;;;;5048844;28;21067;-89
2023/09/25 07:04:48;;;;;;;7.30;6.60;;;15.80;99.90;;;;;;5046679;28;20537;-89
2023/09/25 07:07:19;;;;;;;9.40;7.80;;;15.80;99.90;;;;;;5059520;28;20481;-83
2023/09/25 07:13:10;;;;;;;7.00;6.23;;;15.90;99.90;;;;;;5052892;28;20454;-83
2023/09/25 07:15:41;;;;;;;7.90;7.10;;;15.90;99.90;;;;;;5287298;22;20482;-81
2023/09/25 07:18:33;;;;;;;7.40;6.70;;;16.00;99.90;;;;;;5074582;28;20788;-83
2023/09/25 07:21:07;;;;;;;7.03;6.43;;;16.00;99.90;;;;;;5074074;28;20481;-84
2023/09/25 07:24:06;;;;;;;10.90;7.10;;;16.10;99.90;;;;;;5075154;28;21037;-83
2023/09/25 07:26:40;;;;;;;7.90;7.20;;;16.00;99.90;;;;;;4965544;28;20804;-84
2023/09/25 07:29:11;;;;;;;6.87;6.27;;;16.10;99.90;;;;;;5042146;28;20558;-84
2023/09/25 07:31:40;;;;;;;13.40;7.17;;;16.10;99.90;;;;;;5054742;28;21289;-83
2023/09/25 07:34:07;;;;;;;8.47;7.60;;;16.20;99.90;;;;;;5043910;28;20550;-89
2023/09/25 07:36:36;;;;;;;7.80;7.00;;;16.20;99.90;;;;;;5038310;28;20471;-83
2023/09/25 07:39:13;;;;;;;7.63;6.80;;;16.30;99.90;;;;;;5054543;28;20555;-84
2023/09/25 07:41:45;;;;;;;6.87;6.23;;;16.30;99.90;;;;;;5046678;28;20491;-83
2023/09/25 07:44:12;;;;;;;7.03;6.33;;;16.40;99.90;;;;;;5045394;28;20459;-89
2023/09/25 07:46:50;;;;;;;11.70;7.17;;;16.50;99.90;;;;;;5046109;28;20467;-83
2023/09/25 07:49:26;;;;;;;9.20;8.20;;;16.50;99.90;;;;;;5054732;28;20805;-88
2023/09/25 07:52:00;;;;;;;9.77;7.80;;;16.60;99.90;;;;;;5055624;28;20474;-83
2023/09/25 07:54:28;;;;;;;8.70;6.70;;;16.60;99.90;;;;;;5055703;28;20553;-88
2023/09/25 07:56:55;;;;;;;10.70;7.73;;;16.70;99.90;;;;;;5057967;28;20471;-87
2023/09/25 07:59:46;;;;;;;8.70;7.80;;;16.80;99.90;;;;;;5058059;28;20467;-86
2023/09/25 08:02:39;;;;;;;20.43;8.20;;;16.90;99.90;;;;;;5063277;28;20470;-88
2023/09/25 08:05:10;;;;;;;10.57;7.60;;;16.90;99.90;;;;;;5056928;28;20546;-82
2023/09/25 08:07:47;;;;;;;10.93;7.40;;;16.90;99.90;;;;;;5046115;28;20466;-84
2023/09/25 08:10:21;;;;;;;7.53;6.83;;;17.00;99.90;;;;;;5045955;28;20463;-84
2023/09/25 08:12:51;;;;;;;9.83;7.23;;;17.20;99.90;;;;;;5054186;28;20486;-83
2023/09/25 08:15:48;;;;;;;9.07;7.00;;;17.20;99.90;;;;;;5054399;28;20570;-84
2023/09/25 08:18:23;;;;;;;6.53;5.93;;;17.30;99.90;;;;;;5056136;28;20463;-84
2023/09/25 08:20:53;;;;;;;8.33;6.43;;;17.30;99.90;;;;;;5056245;28;20989;-83
2023/09/25 08:23:32;;;;;;;10.23;5.50;;;17.40;99.90;;;;;;5043838;28;20466;-83
2023/09/25 08:26:01;;;;;;;7.57;6.87;;;17.60;99.90;;;;;;5054620;28;20818;-82
2023/09/25 08:28:32;;;;;;;6.80;6.13;;;17.70;99.90;;;;;;5054785;28;20956;-90
2023/09/25 08:31:01;;;;;;;6.90;6.30;;;17.70;99.90;;;;;;5043669;28;20463;-89
2023/09/25 08:33:35;;;;;;;7.10;6.40;;;17.80;99.90;;;;;;5044343;28;20533;-88
2023/09/25 08:36:11;;;;;;;6.20;4.90;;;17.90;99.90;;;;;;5053270;28;20848;-88
2023/09/25 08:38:41;;;;;;;7.03;5.97;;;18.00;99.90;;;;;;5056761;28;20847;-84
2023/09/25 08:41:08;;;;;;;10.40;5.97;;;18.00;99.90;;;;;;5044138;28;20489;-84
2023/09/25 08:43:50;;;;;;;9.70;6.20;;;18.00;99.90;;;;;;5052776;28;20808;-84
2023/09/25 08:46:54;;;;;;;;;;;;;;;;;;;;;
2023/09/25 08:49:25;;;;;;;6.97;4.97;;;18.10;99.90;;;;;;5034855;28;21386;-83
2023/09/25 08:51:59;;;;;;;5.03;4.60;;;18.20;99.90;;;;;;5043019;28;20789;-84
2023/09/25 08:54:26;;;;;;;7.80;4.90;;;18.30;99.90;;;;;;5051953;28;20987;-84
2023/09/25 08:56:54;;;;;;;6.57;5.93;;;18.40;99.90;;;;;;5034059;28;20471;-83
2023/09/25 08:59:24;;;;;;;6.17;5.67;;;18.40;99.90;;;;;;5053162;28;20531;-84
2023/09/25 09:01:56;;;;;;;7.13;5.23;;;18.50;99.90;;;;;;5052978;28;20844;-84
2023/09/25 09:04:26;;;;;;;4.63;4.03;;;18.60;99.90;;;;;;5053468;28;20862;-84
2023/09/25 09:06:55;;;;;;;4.73;4.33;;;18.60;99.90;;;;;;5042635;28;20460;-82
2023/09/25 09:09:46;;;;;;;5.07;4.57;;;18.70;99.90;;;;;;5052656;28;20907;-82
2023/09/25 09:12:21;;;;;;;5.30;4.80;;;18.80;99.90;;;;;;5027072;28;20556;-83
2023/09/25 09:14:56;;;;;;;6.20;4.73;;;18.90;99.90;;;;;;5045170;28;20863;-83
2023/09/25 09:17:29;;;;;;;5.27;4.50;;;18.90;99.90;;;;;;5054993;28;20816;-84
2023/09/25 09:19:57;;;;;;;6.57;5.00;;;19.00;99.90;;;;;;5053503;28;20475;-84
2023/09/25 09:22:27;;;;;;;5.20;4.80;;;19.10;99.90;;;;;;5053823;28;20792;-83
2023/09/25 09:24:56;;;;;;;5.23;4.03;;;19.10;99.90;;;;;;5052822;28;20494;-84
2023/09/25 09:27:27;;;;;;;4.37;4.07;;;19.20;99.90;;;;;;5053670;28;20475;-83
2023/09/25 09:29:57;;;;;;;4.97;4.13;;;19.30;99.90;;;;;;5052551;28;20467;-85
2023/09/25 09:32:24;;;;;;;5.47;4.97;;;19.40;99.90;;;;;;5053121;28;20775;-84
2023/09/25 09:34:53;;;;;;;4.63;4.03;;;19.40;99.90;;;;;;5050349;28;20486;-84
2023/09/25 09:37:23;;;;;;;5.27;4.77;;;19.50;99.90;;;;;;5052060;28;20956;-84
2023/09/25 09:39:52;;;;;;;6.53;4.97;;;19.60;99.90;;;;;;5061503;28;20478;-83
2023/09/25 09:42:28;;;;;;;5.50;4.90;;;19.60;99.90;;;;;;5060514;28;20554;-83
2023/09/25 09:48:00;;;;;;;5.20;4.40;;;19.80;99.90;;;;;;5051744;28;20463;-83
2023/09/25 09:50:29;;;;;;;4.80;4.33;;;19.80;99.90;;;;;;5052808;28;20489;-83
2023/09/25 09:53:05;;;;;;;5.30;4.80;;;19.80;99.90;;;;;;5049325;28;20528;-83
2023/09/25 09:55:39;;;;;;;5.10;4.40;;;19.90;99.90;;;;;;5057357;28;20467;-84
2023/09/25 09:58:07;;;;;;;5.50;4.43;;;19.90;99.90;;;;;;5061193;28;20479;-84
2023/09/25 10:01:02;;;;;;;5.83;4.30;;;19.90;99.90;;;;;;5056406;28;20470;-84
2023/09/25 10:03:38;;;;;;;4.40;4.00;;;20.00;99.90;;;;;;5033637;28;20528;-84
2023/09/25 10:06:22;;;;;;;3.90;3.60;;;20.00;99.90;;;;;;5039820;28;20544;-85
2023/09/25 10:09:11;;;;;;;5.87;4.90;;;20.10;99.90;;;;;;5057146;28;20872;-84
2023/09/25 10:11:39;;;;;;;5.20;4.50;;;20.10;99.90;;;;;;5047611;28;20477;-84
2023/09/25 10:14:09;;;;;;;4.87;4.40;;;20.10;99.90;;;;;;5055540;28;20477;-84
2023/09/25 10:16:59;;;;;;;4.73;4.23;;;20.20;99.90;;;;;;5053658;28;20978;-84
2023/09/25 10:19:49;;;;;;;5.57;5.00;;;20.20;99.90;;;;;;5042907;28;20468;-85
2023/09/25 10:22:23;;;;;;;4.90;4.50;;;20.30;99.90;;;;;;5035310;28;20695;-83
2023/09/25 10:25:11;;;;;;;8.80;7.63;;;20.30;99.90;;;;;;5052427;28;21044;-83
2023/09/25 10:28:08;;;;;;;7.83;7.03;;;20.40;99.90;;;;;;5050403;28;20460;-90
2023/09/25 10:30:43;;;;;;;7.77;5.77;;;20.50;99.90;;;;;;5006241;28;20488;-89
2023/09/25 10:33:12;;;;;;;9.37;6.60;;;20.60;99.90;;;;;;5043196;28;21143;-91
2023/09/25 10:35:59;;;;;;;6.87;6.20;;;20.60;99.90;;;;;;5049540;28;20487;-83
2023/09/25 10:38:28;;;;;;;4.40;4.03;;;20.70;99.90;;;;;;5025360;28;20562;-90
2023/09/25 10:41:00;;;;;;;4.70;4.20;;;20.70;99.90;;;;;;5027849;28;20467;-84
2023/09/25 10:43:33;;;;;;;4.23;3.83;;;20.70;99.90;;;;;;5049018;28;20566;-89
2023/09/25 10:46:00;;;;;;;4.97;4.37;;;20.70;99.90;;;;;;5054395;28;20479;-84
2023/09/25 10:48:31;;;;;;;8.40;7.70;;;20.70;99.90;;;;;;5041043;28;20476;-82
2023/09/25 10:50:58;;;;;;;5.80;5.27;;;20.80;99.90;;;;;;5038994;28;20479;-83
2023/09/25 10:53:27;;;;;;;11.33;4.90;;;20.80;99.90;;;;;;5042600;28;20513;-89
2023/09/25 10:55:56;;;;;;;4.30;3.90;;;20.80;99.90;;;;;;5056785;28;20867;-90
2023/09/25 10:58:38;;;;;;;4.77;4.37;;;20.80;99.90;;;;;;5051304;28;20474;-92
2023/09/25 11:01:15;;;;;;;4.40;3.63;;;20.80;99.90;;;;;;5054510;28;20477;-90
2023/09/25 11:03:55;;;;;;;4.50;4.20;;;20.90;99.90;;;;;;5046058;28;20478;-90
2023/09/25 11:06:25;;;;;;;6.53;4.40;;;20.90;99.90;;;;;;5045736;28;20459;-91
2023/09/25 11:09:11;;;;;;;4.30;4.00;;;20.90;99.90;;;;;;5049923;28;20968;-90
2023/09/25 11:11:41;;;;;;;4.30;3.90;;;21.00;99.90;;;;;;5038875;28;20928;-88
2023/09/25 11:14:11;;;;;;;4.83;4.40;;;21.10;99.90;;;;;;5043064;28;20838;-89
2023/09/25 11:16:44;;;;;;;4.27;3.80;;;21.10;99.90;;;;;;5052987;28;20479;-90
2023/09/25 11:23:09;;;;;;;4.20;3.70;;;21.10;99.90;;;;;;4968272;28;20471;-89
2023/09/25 11:25:54;;;;;;;4.87;3.33;;;21.00;99.90;;;;;;5040774;28;20463;-89
2023/09/25 11:28:33;;;;;;;4.10;3.80;;;21.00;99.90;;;;;;5033693;28;20471;-90
2023/09/25 11:31:08;;;;;;;5.13;4.73;;;21.00;99.90;;;;;;5038541;28;20514;-91
2023/09/25 11:33:44;;;;;;;4.27;3.87;;;21.10;99.90;;;;;;5020495;28;21020;-90
2023/09/25 11:36:12;;;;;;;4.50;4.20;;;21.10;99.90;;;;;;5044778;28;20511;-91
2023/09/25 11:38:39;;;;;;;4.63;4.00;;;21.00;99.90;;;;;;5055684;28;20478;-90
2023/09/25 11:41:10;;;;;;;3.80;3.40;;;21.00;99.90;;;;;;5055647;28;20536;-89
2023/09/25 11:43:41;;;;;;;7.00;4.77;;;21.10;99.90;;;;;;5055688;28;20475;-89
2023/09/25 11:46:15;;;;;;;3.63;3.33;;;21.10;99.90;;;;;;5055079;28;20471;-90
2023/09/25 11:48:48;;;;;;;3.80;3.50;;;21.20;99.90;;;;;;5049238;28;20468;-89
2023/09/25 11:51:21;;;;;;;5.27;4.23;;;21.20;99.90;;;;;;5037718;28;20469;-89
2023/09/25 11:53:52;;;;;;;6.50;5.40;;;21.30;99.90;;;;;;5055299;28;20798;-89
2023/09/25 11:56:44;;;;;;;7.33;4.67;;;21.30;99.90;;;;;;5056795;28;20475;-88
2023/09/25 11:59:15;;;;;;;11.50;4.67;;;21.40;99.90;;;;;;5052057;28;20469;-90
2023/09/25 12:01:46;;;;;;;5.43;3.90;;;21.30;99.90;;;;;;5042157;28;20817;-89
2023/09/25 12:07:26;;;;;;;4.40;4.00;;;21.40;99.90;;;;;;5050612;28;20469;-89
2023/09/25 12:09:57;;;;;;;4.93;4.53;;;21.40;99.90;;;;;;5054207;28;20466;-90
2023/09/25 12:23:01;;;;;;;4.43;4.10;;;21.60;99.90;;;;;;5020166;28;20490;-91
2023/09/25 12:31:40;;;;;;;4.00;3.70;;;21.70;99.90;;;;;;4991731;28;20476;-82
2023/09/25 12:34:16;;;;;;;5.60;4.37;;;21.70;99.90;;;;;;5011233;28;20977;-83
2023/09/25 12:42:59;;;;;;;4.27;3.67;;;21.80;99.90;;;;;;5019895;28;20480;-83
2023/09/25 12:48:59;;;;;;;;;;;;;;;;;;;;;
2023/09/25 12:51:41;;;;;;;4.57;3.50;;;21.90;99.90;;;;;;5021830;28;20811;-88
2023/09/25 12:57:24;;;;;;;3.57;3.27;;;22.00;99.90;;;;;;4949276;28;20492;-84
2023/09/25 12:59:58;;;;;;;3.57;3.27;;;22.00;99.90;;;;;;5013483;28;20650;-83
2023/09/25 13:02:29;;;;;;;4.57;4.20;;;22.10;99.90;;;;;;5032460;28;20801;-84
2023/09/25 13:05:20;;;;;;;4.93;4.43;;;22.10;99.90;;;;;;5021892;28;20476;-83
2023/09/25 13:07:58;;;;;;;3.60;3.37;;;22.20;99.90;;;;;;5017784;28;20576;-83
2023/09/25 13:10:55;;;;;;;3.80;3.53;;;22.20;99.90;;;;;;5033430;28;20977;-84
2023/09/25 13:14:04;;;;;;;4.77;4.30;;;22.20;99.90;;;;;;5024299;28;20467;-83
2023/09/25 13:19:51;;;;;;;2.97;2.77;;;22.20;99.90;;;;;;4952338;28;20479;-83
2023/09/25 13:22:18;;;;;;;4.63;2.80;;;22.20;99.90;;;;;;5032375;28;20453;-84
2023/09/25 13:24:45;;;;;;;3.53;3.23;;;22.20;99.90;;;;;;5041107;28;20471;-83
2023/09/25 13:27:16;;;;;;;3.40;3.20;;;22.20;99.90;;;;;;5046101;28;20463;-88
2023/09/25 13:32:30;;;;;;;2.47;2.27;;;22.30;99.90;;;;;;5050420;28;20455;-82
2023/09/25 13:35:00;;;;;;;3.83;2.93;;;22.20;99.90;;;;;;5051374;28;20802;-84
2023/09/25 13:37:30;;;;;;;5.23;2.57;;;22.10;99.90;;;;;;5052139;28;20949;-82
2023/09/25 13:39:59;;;;;;;3.20;2.90;;;22.10;99.90;;;;;;5049779;28;20570;-82
2023/09/25 13:42:27;;;;;;;3.10;2.33;;;22.10;99.90;;;;;;5045343;28;20460;-82
2023/09/25 13:44:56;;;;;;;2.40;2.30;;;22.00;99.90;;;;;;5052346;28;20536;-80
2023/09/25 13:47:26;;;;;;;3.73;2.87;;;22.10;99.90;;;;;;5057002;28;20471;-86
2023/09/25 13:49:58;;;;;;;3.10;2.80;;;22.10;99.90;;;;;;5055114;28;20475;-86
2023/09/25 13:52:25;;;;;;;2.40;2.20;;;22.10;99.90;;;;;;5030422;28;20949;-83
2023/09/25 13:54:54;;;;;;;3.60;2.30;;;22.10;99.90;;;;;;5040178;28;20486;-82
2023/09/25 13:57:24;;;;;;;3.33;3.13;;;22.10;99.90;;;;;;5033439;28;20491;-87
2023/09/25 13:59:51;;;;;;;2.30;2.17;;;22.10;99.90;;;;;;5042462;28;20522;-87
2023/09/25 14:02:19;;;;;;;3.60;3.30;;;22.10;99.90;;;;;;5035653;28;20489;-82
2023/09/25 14:05:02;;;;;;;3.70;2.67;;;22.10;99.90;;;;;;5038590;28;20486;-81
2023/09/25 14:08:10;;;;;;;3.40;2.87;;;22.10;99.90;;;;;;5040470;28;20976;-83
2023/09/25 14:10:48;;;;;;;2.70;2.50;;;22.20;99.90;;;;;;5052098;28;20463;-82
2023/09/25 14:13:17;;;;;;;2.83;2.63;;;22.20;99.90;;;;;;5052319;28;20471;-82